Global Vega — HOXZ — position and weather

sailwx.info

Track history (hours):
 
Tides and Currents Weather Stations Pressure Air Temp Water Temp Dewpoint Dewpoint Depression Visibility Wind Speed Wind Dir Waves Ship Positions

Global Vega

Last reported at 2018-May-04 20:28 UTC. Time now 2018-Jun-23 14:02 UTC.
Position N 30°50' E 122°55'.
Warning: this ship's position is 49 days out of date.

Length 190 m; draft 7 m.

Type: Cargo ship. MMSI: 352369000.

Date/timePositionNaut miles runAvg speedWind from/ knotsBaromVisibWave heightAir tempDewpointWater temp
2018-May-04 20:28N 30°50' E 122°55'1111.8
2018-May-04 19:31N 30°56' E 122°43'411.8
2018-May-04 19:11N 30°57' E 122°39'211.7
2018-May-04 19:00N 30°58' E 122°37'611.6
2018-May-04 18:30N 30°59' E 122°30'510.8
2018-May-04 18:00N 31°01' E 122°24'510.4
2018-May-04 17:30N 31°02' E 122°18'5 9.1
2018-May-04 17:00N 31°03' E 122°13'3 6.0
2018-May-04 16:30N 31°02' E 122°10'3 6.6
2018-May-04 16:00N 31°04' E 122°06'510.1
2018-May-04 15:30N 31°05' E 122°00'5 9.9
2018-May-04 15:00N 31°08' E 121°55'712.6
2018-May-04 14:26N 31°12' E 121°49'613.5
2018-May-04 14:00N 31°17' E 121°45'1411.4
2018-May-04 12:44N 31°25' E 121°31'4 7.2
2018-May-04 12:12N 31°28' E 121°28'2 8.6
2018-May-04 11:57N 31°29' E 121°26'5 9.7
2018-May-04 11:26N 31°32' E 121°21'512.5
2018-May-04 11:00N 31°36' E 121°17'713.1
2018-May-04 10:30N 31°41' E 121°11'611.9
2018-May-04 10:00N 31°44' E 121°06'611.6
2018-May-04 09:30N 31°47' E 120°60'6 9.5
2018-May-04 08:55N 31°50' E 120°54'19 9.7
2018-May-04 06:55N 32°00' E 120°35'512.7
2018-May-04 06:30N 32°02' E 120°29'712.9
2018-May-04 06:00N 31°60' E 120°22'  
2018-Apr-27 22:28N 32°10' E 119°54'4 1.2
2018-Apr-27 18:42N 32°06' E 119°55'0 0.2
2018-Apr-27 18:27N 32°06' E 119°56'0 0.0
2018-Apr-27 14:15N 32°06' E 119°56'23 4.0
2018-Apr-27 08:31N 31°60' E 120°22'110.8
2018-Apr-27 08:27N 32°00' E 120°22'410.0
2018-Apr-27 08:00N 32°02' E 120°27'611.1
2018-Apr-27 07:27N 32°01' E 120°34'3010.3
2018-Apr-27 04:32N 31°45' E 121°05'110.5
2018-Apr-27 04:27N 31°45' E 121°06'612.9
2018-Apr-27 04:00N 31°41' E 121°11'713.5
2018-Apr-27 03:30N 31°37' E 121°17'612.2
2018-Apr-27 03:00N 31°32' E 121°21'611.7
2018-Apr-27 02:30N 31°29' E 121°27'5 8.5
2018-Apr-27 01:59N 31°25' E 121°31'4 8.2
2018-Apr-27 01:30N 31°23' E 121°34'510.3
2018-Apr-27 01:00N 31°21' E 121°40'5 9.5
2018-Apr-27 00:29N 31°19' E 121°45'5 9.6
2018-Apr-27 00:00N 31°17' E 121°50'712.9
2018-Apr-26 23:27N 31°15' E 121°58'3 6.5
2018-Apr-26 22:55N 31°15' E 122°02'4 9.8
2018-Apr-26 22:30N 31°13' E 122°06'5 9.4
2018-Apr-26 22:00N 31°11' E 122°11'4 7.9
2018-Apr-26 21:30N 31°08' E 122°15'3 7.0
2018-Apr-26 21:00N 31°06' E 122°18'5 9.8
2018-Apr-26 20:30N 31°06' E 122°24'4 6.9
2018-Apr-26 20:00N 31°07' E 122°28'3 5.3
2018-Apr-26 19:28N 31°08' E 122°31'4 8.1
2018-Apr-26 18:58N 31°10' E 122°34'3 5.8
2018-Apr-26 18:30N 31°11' E 122°37'0 0.2
2018-Apr-26 16:40N 31°10' E 122°38'0 0.0
2018-Apr-26 16:28N 31°10' E 122°38'0 0.1
2018-Apr-26 15:55N 31°10' E 122°38'0 0.1
2018-Apr-26 15:16N 31°11' E 122°38'0 0.1
2018-Apr-26 14:52N 31°11' E 122°38'0 0.1
2018-Apr-26 14:28N 31°11' E 122°38'0 0.1
2018-Apr-26 13:55N 31°11' E 122°38'0 0.0
2018-Apr-26 13:22N 31°11' E 122°38'0 0.0
2018-Apr-26 12:16N 31°11' E 122°37'0 0.0
2018-Apr-26 10:16N 31°11' E 122°37'0 0.1
2018-Apr-26 07:49N 31°10' E 122°38'0 0.1
2018-Apr-26 07:22N 31°10' E 122°38'0 0.0
2018-Apr-26 06:49N 31°10' E 122°38'0 0.0
2018-Apr-26 05:31N 31°10' E 122°38'0 0.0
2018-Apr-26 02:31N 31°11' E 122°38'0 0.1
2018-Apr-26 02:25N 31°11' E 122°38'0 0.1
2018-Apr-26 00:49N 31°11' E 122°38'0 0.1
2018-Apr-26 00:28N 31°11' E 122°37'0 0.0
2018-Apr-25 15:10N 31°10' E 122°38'  
Track history (hours):
 
Tides and Currents Weather Stations Pressure Air Temp Water Temp Dewpoint Dewpoint Depression Visibility Wind Speed Wind Dir Waves Ship Positions

Global Vega

Last reported at 2018-May-04 20:28 UTC. Time now 2018-Jun-23 14:02 UTC.
Position N 30°50' E 122°55'.
Warning: this ship's position is 49 days out of date.

Length 190 m; draft 7 m.

Type: Cargo ship. MMSI: 352369000.

Date/timePositionNaut miles runAvg speedWind from/ knotsBaromVisibWave heightAir tempDewpointWater temp
2018-May-04 20:28N 30°50' E 122°55'1111.8
2018-May-04 19:31N 30°56' E 122°43'411.8
2018-May-04 19:11N 30°57' E 122°39'211.7
2018-May-04 19:00N 30°58' E 122°37'611.6
2018-May-04 18:30N 30°59' E 122°30'510.8
2018-May-04 18:00N 31°01' E 122°24'510.4
2018-May-04 17:30N 31°02' E 122°18'5 9.1
2018-May-04 17:00N 31°03' E 122°13'3 6.0
2018-May-04 16:30N 31°02' E 122°10'3 6.6
2018-May-04 16:00N 31°04' E 122°06'510.1
2018-May-04 15:30N 31°05' E 122°00'5 9.9
2018-May-04 15:00N 31°08' E 121°55'712.6
2018-May-04 14:26N 31°12' E 121°49'613.5
2018-May-04 14:00N 31°17' E 121°45'1411.4
2018-May-04 12:44N 31°25' E 121°31'4 7.2
2018-May-04 12:12N 31°28' E 121°28'2 8.6
2018-May-04 11:57N 31°29' E 121°26'5 9.7
2018-May-04 11:26N 31°32' E 121°21'512.5
2018-May-04 11:00N 31°36' E 121°17'713.1
2018-May-04 10:30N 31°41' E 121°11'611.9
2018-May-04 10:00N 31°44' E 121°06'611.6
2018-May-04 09:30N 31°47' E 120°60'6 9.5
2018-May-04 08:55N 31°50' E 120°54'19 9.7
2018-May-04 06:55N 32°00' E 120°35'512.7
2018-May-04 06:30N 32°02' E 120°29'712.9
2018-May-04 06:00N 31°60' E 120°22'  
2018-Apr-27 22:28N 32°10' E 119°54'4 1.2
2018-Apr-27 18:42N 32°06' E 119°55'0 0.2
2018-Apr-27 18:27N 32°06' E 119°56'0 0.0
2018-Apr-27 14:15N 32°06' E 119°56'23 4.0
2018-Apr-27 08:31N 31°60' E 120°22'110.8
2018-Apr-27 08:27N 32°00' E 120°22'410.0
2018-Apr-27 08:00N 32°02' E 120°27'611.1
2018-Apr-27 07:27N 32°01' E 120°34'3010.3
2018-Apr-27 04:32N 31°45' E 121°05'110.5
2018-Apr-27 04:27N 31°45' E 121°06'612.9
2018-Apr-27 04:00N 31°41' E 121°11'713.5
2018-Apr-27 03:30N 31°37' E 121°17'612.2
2018-Apr-27 03:00N 31°32' E 121°21'611.7
2018-Apr-27 02:30N 31°29' E 121°27'5 8.5
2018-Apr-27 01:59N 31°25' E 121°31'4 8.2
2018-Apr-27 01:30N 31°23' E 121°34'510.3
2018-Apr-27 01:00N 31°21' E 121°40'5 9.5
2018-Apr-27 00:29N 31°19' E 121°45'5 9.6
2018-Apr-27 00:00N 31°17' E 121°50'712.9
2018-Apr-26 23:27N 31°15' E 121°58'3 6.5
2018-Apr-26 22:55N 31°15' E 122°02'4 9.8
2018-Apr-26 22:30N 31°13' E 122°06'5 9.4
2018-Apr-26 22:00N 31°11' E 122°11'4 7.9
2018-Apr-26 21:30N 31°08' E 122°15'3 7.0
2018-Apr-26 21:00N 31°06' E 122°18'5 9.8
2018-Apr-26 20:30N 31°06' E 122°24'4 6.9
2018-Apr-26 20:00N 31°07' E 122°28'3 5.3
2018-Apr-26 19:28N 31°08' E 122°31'4 8.1
2018-Apr-26 18:58N 31°10' E 122°34'3 5.8
2018-Apr-26 18:30N 31°11' E 122°37'0 0.2
2018-Apr-26 16:40N 31°10' E 122°38'0 0.0
2018-Apr-26 16:28N 31°10' E 122°38'0 0.1
2018-Apr-26 15:55N 31°10' E 122°38'0 0.1
2018-Apr-26 15:16N 31°11' E 122°38'0 0.1
2018-Apr-26 14:52N 31°11' E 122°38'0 0.1
2018-Apr-26 14:28N 31°11' E 122°38'0 0.1
2018-Apr-26 13:55N 31°11' E 122°38'0 0.0
2018-Apr-26 13:22N 31°11' E 122°38'0 0.0
2018-Apr-26 12:16N 31°11' E 122°37'0 0.0
2018-Apr-26 10:16N 31°11' E 122°37'0 0.1
2018-Apr-26 07:49N 31°10' E 122°38'0 0.1
2018-Apr-26 07:22N 31°10' E 122°38'0 0.0
2018-Apr-26 06:49N 31°10' E 122°38'0 0.0
2018-Apr-26 05:31N 31°10' E 122°38'0 0.0
2018-Apr-26 02:31N 31°11' E 122°38'0 0.1
2018-Apr-26 02:25N 31°11' E 122°38'0 0.1
2018-Apr-26 00:49N 31°11' E 122°38'0 0.1
2018-Apr-26 00:28N 31°11' E 122°37'0 0.0
2018-Apr-25 15:10N 31°10' E 122°38'  

Dump ship's entire track history